Time;durP1;ratioP1;P1;durP2;ratioP2;P2;SDS_P1;SDS_P2;PMS_P1;PMS_P2;Temp;Humidity;BMP_temperature;BMP_pressure;BME280_temperature;BME280_humidity;BME280_pressure;Samples;Min_cycle;Max_cycle;Signal;HPM_P1;HPM_P2
2021/10/26 00:01:44;;;;;;;9.85;4.75;;;;;;;8.93;100.00;101529.88;5032344;28;20451;-81
2021/10/26 00:04:10;;;;;;;11.00;5.60;;;;;;;8.89;100.00;101528.44;5021379;28;20040;-80
2021/10/26 00:06:36;;;;;;;13.50;5.32;;;;;;;8.86;100.00;101531.28;5037070;28;20044;-81
2021/10/26 00:09:03;;;;;;;11.70;5.72;;;;;;;8.86;100.00;101526.06;5051978;28;20479;-81
2021/10/26 00:11:30;;;;;;;11.73;5.43;;;;;;;8.85;100.00;101526.16;5017933;28;20037;-81
2021/10/26 00:13:55;;;;;;;8.43;5.88;;;;;;;8.85;100.00;101528.78;5050413;28;20174;-81
2021/10/26 00:16:21;;;;;;;10.52;6.10;;;;;;;8.83;100.00;101528.88;5027639;28;20075;-82
2021/10/26 00:18:47;;;;;;;10.35;6.30;;;;;;;8.83;100.00;101535.91;5032391;28;20040;-82
2021/10/26 00:21:12;;;;;;;9.48;6.55;;;;;;;8.82;100.00;101532.47;5009021;28;20098;-81
2021/10/26 00:23:38;;;;;;;12.52;7.00;;;;;;;8.85;100.00;101528.78;5031048;28;20025;-81
2021/10/26 00:26:06;;;;;;;11.00;5.88;;;;;;;8.82;100.00;101529.84;5026203;28;20037;-81
2021/10/26 00:28:33;;;;;;;13.75;6.15;;;;;;;8.79;100.00;101530.06;5023140;28;20033;-81
2021/10/26 00:30:59;;;;;;;12.68;6.97;;;;;;;8.73;100.00;101520.91;5020984;28;20045;-81
2021/10/26 00:33:25;;;;;;;11.13;7.10;;;;;;;8.73;100.00;101522.69;5024284;28;20060;-81
2021/10/26 00:35:51;;;;;;;13.85;7.70;;;;;;;8.72;100.00;101518.41;5038358;28;20483;-80
2021/10/26 00:38:20;;;;;;;15.02;7.85;;;;;;;8.68;100.00;101519.59;5022826;28;20487;-82
2021/10/26 00:40:47;;;;;;;12.55;7.97;;;;;;;8.69;100.00;101521.28;5004722;28;20484;-82
2021/10/26 00:43:13;;;;;;;11.82;8.05;;;;;;;8.66;100.00;101511.84;5039109;28;20032;-81
2021/10/26 00:45:39;;;;;;;21.67;10.88;;;;;;;8.69;100.00;101518.66;5018908;28;20044;-81
2021/10/26 00:48:05;;;;;;;15.25;10.55;;;;;;;8.68;100.00;101511.75;5043240;28;20033;-81
2021/10/26 00:50:31;;;;;;;16.15;9.60;;;;;;;8.69;100.00;101510.81;5016412;28;20030;-82
2021/10/26 00:52:58;;;;;;;19.50;11.45;;;;;;;8.65;100.00;101512.00;5036633;28;20033;-83
2021/10/26 00:55:24;;;;;;;19.95;12.15;;;;;;;8.69;100.00;101516.88;5045201;28;20093;-83
2021/10/26 00:57:51;;;;;;;20.10;12.75;;;;;;;8.72;100.00;101515.78;5042303;28;20041;-83
2021/10/26 01:00:20;;;;;;;17.45;11.82;;;;;;;8.63;100.00;101500.81;5042351;28;20033;-83
2021/10/26 01:02:46;;;;;;;20.20;12.07;;;;;;;8.72;100.00;101515.78;5046023;28;20032;-83
2021/10/26 01:05:23;;;;;;;19.38;12.65;;;;;;;8.72;100.00;101518.41;5030151;28;20052;-83
2021/10/26 01:07:49;;;;;;;22.63;12.95;;;;;;;8.72;100.00;101516.66;5017854;28;20817;-83
2021/10/26 01:10:16;;;;;;;19.52;12.85;;;;;;;8.73;100.00;101514.84;5057567;28;20124;-84
2021/10/26 01:12:42;;;;;;;22.85;12.70;;;;;;;8.62;100.00;101505.19;5021152;28;20514;-83
2021/10/26 01:15:09;;;;;;;21.42;12.52;;;;;;;8.74;100.00;101519.97;5022686;28;20368;-83
2021/10/26 01:17:35;;;;;;;18.52;12.23;;;;;;;8.73;100.00;101526.13;5017164;28;20037;-83
2021/10/26 01:20:03;;;;;;;15.57;11.63;;;;;;;8.69;100.00;101524.72;5035592;28;20037;-82
2021/10/26 01:22:29;;;;;;;20.50;12.27;;;;;;;8.70;100.00;101521.16;5040289;28;20072;-83
2021/10/26 01:24:55;;;;;;;23.00;13.77;;;;;;;8.61;100.00;101505.28;5010504;28;20041;-83
2021/10/26 01:27:23;;;;;;;19.95;12.38;;;;;;;8.70;100.00;101520.31;5026370;28;20118;-83
2021/10/26 01:29:52;;;;;;;20.27;12.27;;;;;;;8.63;100.00;101506.03;5023382;28;20103;-83
2021/10/26 01:32:18;;;;;;;21.25;12.75;;;;;;;8.72;100.00;101515.78;5039399;28;20029;-82
2021/10/26 01:34:49;;;;;;;20.30;13.57;;;;;;;8.71;100.00;101514.97;5022607;28;20056;-81
2021/10/26 01:37:15;;;;;;;18.85;12.63;;;;;;;8.72;100.00;101516.66;5005813;28;20059;-80
2021/10/26 01:39:42;;;;;;;18.48;12.63;;;;;;;8.72;100.00;101521.03;5033227;28;20044;-82
2021/10/26 01:42:09;;;;;;;20.88;14.43;;;;;;;8.65;100.00;101501.53;5014988;28;20043;-81
2021/10/26 01:44:35;;;;;;;25.20;14.80;;;;;;;8.76;100.00;101517.25;5012611;28;20044;-81
2021/10/26 01:47:21;;;;;;;25.55;15.65;;;;;;;8.76;100.00;101506.78;5046448;28;20516;-82
2021/10/26 01:49:47;;;;;;;28.05;17.15;;;;;;;8.86;100.00;101515.59;5045520;28;20033;-81
2021/10/26 01:52:12;;;;;;;24.70;17.02;;;;;;;8.94;100.00;101521.06;5021003;28;20052;-81
2021/10/26 01:54:39;;;;;;;26.08;16.75;;;;;;;8.92;100.00;101512.50;5044369;28;20029;-80
2021/10/26 01:57:05;;;;;;;28.55;18.23;;;;;;;8.93;100.00;101515.97;5050455;28;20033;-81
2021/10/26 01:59:44;;;;;;;32.25;19.05;;;;;;;8.98;100.00;101516.44;5028280;28;20121;-81
2021/10/26 02:02:09;;;;;;;26.38;17.27;;;;;;;8.98;100.00;101520.84;5040206;28;20563;-81
2021/10/26 02:04:35;;;;;;;26.00;15.48;;;;;;;8.90;100.00;101519.63;5027512;28;20053;-81
2021/10/26 02:07:02;;;;;;;26.42;15.93;;;;;;;8.92;100.00;101527.38;5038048;28;20132;-82
2021/10/26 02:09:31;;;;;;;26.50;15.93;;;;;;;8.89;100.00;101514.50;5035591;28;20041;-81
2021/10/26 02:11:57;;;;;;;31.00;16.02;;;;;;;8.89;100.00;101506.66;5034028;28;20039;-81
2021/10/26 02:14:22;;;;;;;30.35;18.23;;;;;;;8.86;100.00;101512.16;5009738;28;20032;-81
2021/10/26 02:16:48;;;;;;;27.88;17.13;;;;;;;8.80;100.00;101502.13;5027063;28;20089;-81
2021/10/26 02:19:15;;;;;;;35.40;19.50;;;;;;;8.84;100.00;101506.19;5031904;28;20061;-81
2021/10/26 02:21:42;;;;;;;30.30;17.63;;;;;;;8.77;100.00;101505.81;5020260;28;20037;-81
2021/10/26 02:24:09;;;;;;;37.55;19.73;;;;;;;8.74;100.00;101517.34;5008262;28;20123;-79
2021/10/26 02:26:36;;;;;;;33.90;19.90;;;;;;;8.73;100.00;101509.63;5020041;28;20029;-81
2021/10/26 02:29:03;;;;;;;32.08;19.45;;;;;;;8.68;100.00;101514.34;5037598;28;20129;-81
2021/10/26 02:31:31;;;;;;;33.45;21.95;;;;;;;8.62;100.00;101502.56;5042773;28;20039;-81
2021/10/26 02:33:57;;;;;;;45.38;22.70;;;;;;;8.63;100.00;101514.72;5036880;28;20479;-81
2021/10/26 02:36:22;;;;;;;40.95;23.40;;;;;;;8.63;100.00;101512.09;5001497;28;20504;-81
2021/10/26 02:38:48;;;;;;;42.20;23.10;;;;;;;8.65;100.00;101506.75;5016272;28;20424;-79
2021/10/26 02:41:14;;;;;;;40.38;23.92;;;;;;;8.65;100.00;101510.19;5018676;28;20063;-80
2021/10/26 02:43:40;;;;;;;48.55;25.75;;;;;;;8.67;100.00;101497.84;5043789;28;20033;-81
2021/10/26 02:46:06;;;;;;;39.03;23.70;;;;;;;8.64;100.00;101503.28;5049737;28;20124;-81
2021/10/26 02:48:33;;;;;;;43.15;24.88;;;;;;;8.60;100.00;101504.47;5020524;28;20467;-81
2021/10/26 02:50:58;;;;;;;41.75;24.40;;;;;;;8.62;100.00;101502.56;5036496;28;20029;-80
2021/10/26 02:53:25;;;;;;;42.25;24.63;;;;;;;8.62;100.00;101504.38;5035612;28;20041;-81
2021/10/26 02:55:51;;;;;;;45.28;24.92;;;;;;;8.60;100.00;101503.66;5004426;28;20583;-81
2021/10/26 02:58:19;;;;;;;61.45;29.20;;;;;;;8.54;100.00;101499.72;5004162;28;20487;-81
2021/10/26 03:00:45;;;;;;;47.22;27.02;;;;;;;8.55;100.00;101499.59;5034830;28;20057;-81
2021/10/26 03:03:12;;;;;;;49.28;26.65;;;;;;;8.55;100.00;101494.38;5036195;28;20044;-81
2021/10/26 03:05:38;;;;;;;49.97;27.00;;;;;;;8.55;100.00;101502.22;5024609;28;20029;-81
2021/10/26 03:08:04;;;;;;;52.78;27.27;;;;;;;8.52;100.00;101497.19;5042418;28;20044;-82
2021/10/26 03:10:29;;;;;;;51.67;28.30;;;;;;;8.54;100.00;101499.72;5024801;28;20067;-82
2021/10/26 03:12:55;;;;;;;59.05;31.45;;;;;;;8.56;100.00;101497.81;5017573;28;20037;-80
2021/10/26 03:15:21;;;;;;;49.30;29.35;;;;;;;8.52;100.00;101499.81;5019955;28;20040;-82
2021/10/26 03:17:46;;;;;;;56.75;30.80;;;;;;;8.58;100.00;101503.75;5022424;28;20190;-81
2021/10/26 03:20:20;;;;;;;58.90;33.33;;;;;;;8.62;100.00;101499.97;5002568;28;20045;-81
2021/10/26 03:22:45;;;;;;;59.83;31.90;;;;;;;8.60;100.00;101491.41;5023178;28;20030;-81
2021/10/26 03:25:12;;;;;;;59.78;32.80;;;;;;;8.68;100.00;101496.03;5033883;28;20503;-81
2021/10/26 03:27:38;;;;;;;53.38;31.08;;;;;;;8.66;100.00;101505.78;5034309;28;20052;-81
2021/10/26 03:30:07;;;;;;;53.85;31.15;;;;;;;8.63;100.00;101492.97;5003926;28;20063;-81
2021/10/26 03:32:36;;;;;;;59.28;31.63;;;;;;;8.63;100.00;101495.59;5019906;28;20037;-81
2021/10/26 03:35:25;;;;;;;59.38;32.15;;;;;;;8.68;100.00;101490.81;5007588;28;20057;-81
2021/10/26 03:37:51;;;;;;;57.28;32.83;;;;;;;8.62;100.00;101491.28;5038330;28;20025;-81
2021/10/26 03:40:16;;;;;;;58.60;31.35;;;;;;;8.51;100.00;101487.72;5017992;28;20445;-81
2021/10/26 03:42:42;;;;;;;53.42;30.45;;;;;;;8.42;100.00;101479.69;5038662;28;20022;-81
2021/10/26 03:45:09;;;;;;;58.97;35.28;;;;;;;8.49;100.00;101484.34;5023416;28;20044;-81
2021/10/26 03:47:42;;;;;;;60.78;34.72;;;;;;;8.64;100.00;101481.53;5029813;28;20068;-81
2021/10/26 03:50:09;;;;;;;61.00;33.63;;;;;;;8.68;100.00;101482.97;5018953;28;20029;-81
2021/10/26 03:52:36;;;;;;;55.53;33.88;;;;;;;8.80;100.00;101475.97;5028125;28;20051;-81
2021/10/26 03:55:03;;;;;;;62.00;33.97;;;;;;;8.79;100.00;101483.00;5009285;28;20055;-81
2021/10/26 03:57:29;;;;;;;56.95;30.77;;;;;;;8.63;100.00;101491.19;5034676;28;20107;-82
2021/10/26 03:59:55;;;;;;;55.95;30.17;;;;;;;8.49;100.00;101493.97;5005153;28;20503;-81
2021/10/26 04:02:26;;;;;;;46.80;28.70;;;;;;;8.38;100.00;101498.22;5050606;28;20025;-81
2021/10/26 04:04:55;;;;;;;51.95;30.85;;;;;;;8.28;100.00;101499.81;5020402;28;20048;-81
2021/10/26 04:07:21;;;;;;;52.83;29.60;;;;;;;8.19;100.00;101498.75;5014693;28;20055;-82
2021/10/26 04:09:50;;;;;;;49.88;29.63;;;;;;;8.20;100.00;101496.94;5019693;28;20037;-81
2021/10/26 04:12:24;;;;;;;47.15;30.05;;;;;;;8.13;100.00;101503.56;5026127;28;20041;-82
2021/10/26 04:14:52;;;;;;;48.05;28.15;;;;;;;7.97;100.00;101496.84;5025701;28;20483;-81
2021/10/26 04:17:21;;;;;;;49.60;28.23;;;;;;;7.88;100.00;101507.13;5026855;28;20024;-80
2021/10/26 04:19:48;;;;;;;47.45;28.98;;;;;;;7.83;100.00;101507.44;5033720;28;20514;-81
2021/10/26 04:22:20;;;;;;;52.45;29.38;;;;;;;7.79;100.00;101517.28;5038995;28;20158;-82
2021/10/26 04:24:46;;;;;;;54.70;27.85;;;;;;;7.77;100.00;101513.09;5033385;28;20036;-81
2021/10/26 04:27:12;;;;;;;54.88;30.90;;;;;;;7.83;100.00;101514.44;5037379;28;20033;-82
2021/10/26 04:29:39;;;;;;;55.33;28.98;;;;;;;7.86;100.00;101516.84;5038634;28;20068;-81
2021/10/26 04:32:07;;;;;;;59.85;31.50;;;;;;;7.88;100.00;101518.41;5009122;28;20542;-81
2021/10/26 04:34:34;;;;;;;58.85;32.30;;;;;;;7.95;100.00;101524.84;5004173;28;20045;-81
2021/10/26 04:36:59;;;;;;;57.90;30.02;;;;;;;7.95;100.00;101522.25;5043960;28;20162;-81
2021/10/26 04:39:25;;;;;;;52.70;30.50;;;;;;;8.04;100.00;101525.13;5014975;28;20045;-79
2021/10/26 04:41:50;;;;;;;52.25;29.98;;;;;;;8.07;100.00;101523.13;5038062;28;20505;-79
2021/10/26 04:44:16;;;;;;;63.53;33.30;;;;;;;8.12;100.00;101528.03;5022064;28;20087;-81
2021/10/26 04:46:42;;;;;;;64.32;33.15;;;;;;;8.21;100.00;101529.97;5030817;28;20500;-80
2021/10/26 04:49:08;;;;;;;61.15;31.38;;;;;;;8.18;100.00;101520.56;5018496;28;20067;-80
2021/10/26 04:51:34;;;;;;;51.13;29.88;;;;;;;8.27;100.00;101520.84;5047345;28;20045;-80
2021/10/26 04:54:00;;;;;;;62.45;31.02;;;;;;;8.27;100.00;101524.31;5019447;28;20036;-80
2021/10/26 04:56:26;;;;;;;66.30;33.55;;;;;;;8.32;100.00;101537.03;5003362;28;20030;-80
2021/10/26 04:59:12;;;;;;;58.08;31.13;;;;;;;8.34;100.00;101533.38;5040357;28;20094;-79
2021/10/26 05:01:38;;;;;;;57.25;31.63;;;;;;;8.40;100.00;101542.53;5027422;28;20037;-79
2021/10/26 05:04:04;;;;;;;59.58;32.67;;;;;;;8.39;100.00;101540.88;5037618;28;20037;-81
2021/10/26 05:06:29;;;;;;;69.65;35.50;;;;;;;8.46;100.00;101544.72;5032804;28;20118;-80
2021/10/26 05:08:55;;;;;;;70.05;34.45;;;;;;;8.44;100.00;101533.56;5028533;28;20049;-80
2021/10/26 05:11:23;;;;;;;71.45;34.80;;;;;;;8.55;100.00;101546.66;5037568;28;20041;-79
2021/10/26 05:13:49;;;;;;;65.88;34.00;;;;;;;8.73;100.00;101546.25;5017444;28;20112;-81
2021/10/26 05:16:53;;;;;;;71.60;34.03;;;;;;;8.72;100.00;101553.25;5033143;28;20631;-79
2021/10/26 05:19:39;;;;;;;67.35;33.92;;;;;;;8.70;100.00;101546.47;5015103;28;20038;-81
2021/10/26 05:22:24;;;;;;;67.57;34.08;;;;;;;8.71;100.00;101558.59;5026450;28;20041;-81
2021/10/26 05:25:13;;;;;;;63.47;34.03;;;;;;;8.83;100.00;101556.84;5040798;28;20080;-79
2021/10/26 05:28:01;;;;;;;63.97;33.03;;;;;;;8.81;100.00;101546.50;5034351;28;20060;-81
2021/10/26 05:30:27;;;;;;;69.32;33.58;;;;;;;8.81;100.00;101554.34;5033090;28;20414;-80
2021/10/26 05:32:52;;;;;;;67.35;35.63;;;;;;;8.89;100.00;101553.75;5037205;28;20025;-79
2021/10/26 05:35:18;;;;;;;68.13;34.28;;;;;;;8.89;100.00;101549.38;5003888;28;20392;-79
2021/10/26 05:37:44;;;;;;;71.82;35.10;;;;;;;8.88;100.00;101549.50;5046349;28;20444;-81
2021/10/26 05:40:10;;;;;;;70.43;33.33;;;;;;;8.92;100.00;101554.38;5018901;28;20351;-80
2021/10/26 05:42:35;;;;;;;73.30;35.40;;;;;;;8.93;100.00;101553.44;5036923;28;20063;-79
2021/10/26 05:45:02;;;;;;;81.18;37.20;;;;;;;8.93;100.00;101552.59;5053681;28;20047;-82
2021/10/26 05:47:28;;;;;;;69.35;35.15;;;;;;;8.95;100.00;101556.75;5033523;28;20037;-82
2021/10/26 05:49:54;;;;;;;68.32;35.33;;;;;;;8.99;100.00;101559.16;5020822;28;20179;-79
2021/10/26 05:52:20;;;;;;;75.65;34.17;;;;;;;9.01;100.00;101560.69;5024927;28;20037;-82
2021/10/26 05:54:45;;;;;;;70.97;35.13;;;;;;;8.92;100.00;101551.75;5026618;28;20044;-80
2021/10/26 05:57:11;;;;;;;76.57;35.78;;;;;;;9.02;100.00;101561.53;5034375;28;20492;-79
2021/10/26 05:59:36;;;;;;;76.85;36.13;;;;;;;8.98;100.00;101562.72;5029767;28;20041;-81
2021/10/26 06:02:02;;;;;;;61.72;34.22;;;;;;;9.01;100.00;101563.31;4997226;28;20041;-78
2021/10/26 06:04:27;;;;;;;63.90;35.03;;;;;;;9.01;100.00;101559.88;5026592;28;20053;-81
2021/10/26 06:06:56;;;;;;;64.80;34.05;;;;;;;8.93;100.00;101555.22;5045007;28;20106;-80
2021/10/26 06:09:22;;;;;;;58.63;32.60;;;;;;;8.90;100.00;101558.88;5037127;28;20048;-81
2021/10/26 06:11:50;;;;;;;69.72;36.20;;;;;;;8.80;100.00;101563.16;5020941;28;20111;-81
2021/10/26 06:14:16;;;;;;;69.05;36.50;;;;;;;8.83;100.00;101577.78;5035032;28;20037;-80
2021/10/26 06:16:43;;;;;;;67.53;34.03;;;;;;;8.89;100.00;101585.16;5020980;28;20102;-82
2021/10/26 06:19:10;;;;;;;73.30;35.72;;;;;;;8.83;100.00;101578.59;5009684;28;20033;-81
2021/10/26 06:21:37;;;;;;;67.68;34.40;;;;;;;8.88;100.00;101586.13;5002037;28;20021;-82
2021/10/26 06:24:03;;;;;;;68.25;34.72;;;;;;;8.88;100.00;101594.78;5041862;28;20028;-81
2021/10/26 06:26:29;;;;;;;62.63;33.78;;;;;;;8.87;100.00;101601.00;5032662;28;20069;-80
2021/10/26 06:29:02;;;;;;;69.05;35.97;;;;;;;8.94;100.00;101591.72;5028260;28;20091;-79
2021/10/26 06:31:28;;;;;;;65.25;34.30;;;;;;;8.92;100.00;101596.22;5008497;28;20403;-79
2021/10/26 06:33:55;;;;;;;74.80;38.50;;;;;;;8.97;100.00;101611.59;5032806;28;20039;-81
2021/10/26 06:36:24;;;;;;;64.72;34.50;;;;;;;9.01;100.00;101620.06;5042695;28;20034;-81
2021/10/26 06:38:52;;;;;;;73.10;36.33;;;;;;;9.04;100.00;101615.44;5034330;28;20036;-78
2021/10/26 06:41:18;;;;;;;74.13;36.83;;;;;;;9.04;100.00;101623.28;5025463;28;20043;-82
2021/10/26 06:44:04;;;;;;;68.47;35.55;;;;;;;9.08;100.00;101621.25;4987861;28;20515;-80
2021/10/26 06:46:42;;;;;;;71.03;35.90;;;;;;;9.12;100.00;101630.56;5044564;28;20049;-79
2021/10/26 06:49:27;;;;;;;73.90;37.00;;;;;;;9.15;100.00;101632.91;5043098;28;20033;-81
2021/10/26 06:52:12;;;;;;;64.93;34.80;;;;;;;9.19;100.00;101631.72;5035297;28;20061;-80
2021/10/26 06:54:57;;;;;;;69.95;35.70;;;;;;;9.25;100.00;101628.69;5031444;28;20076;-81
2021/10/26 06:57:48;;;;;;;65.05;37.30;;;;;;;9.45;100.00;101627.13;5037359;28;20029;-81
2021/10/26 07:00:32;;;;;;;66.55;35.75;;;;;;;9.47;100.00;101637.50;5049646;28;20033;-81
2021/10/26 07:03:18;;;;;;;54.22;32.55;;;;;;;9.57;100.00;101635.00;5023597;28;20047;-80
2021/10/26 07:06:04;;;;;;;58.83;35.17;;;;;;;9.57;100.00;101637.63;5049780;28;20088;-80
2021/10/26 07:08:41;;;;;;;54.33;34.00;;;;;;;9.61;100.00;101641.69;5023444;28;20041;-80
2021/10/26 07:11:25;;;;;;;56.88;33.38;;;;;;;9.70;100.00;101652.31;5029615;28;20012;-79
2021/10/26 07:13:52;;;;;;;58.50;33.13;;;;;;;9.71;100.00;101653.94;5023323;28;20033;-81
2021/10/26 07:16:18;;;;;;;57.92;33.05;;;;;;;9.73;100.00;101656.47;5051508;28;20037;-81
2021/10/26 07:18:45;;;;;;;64.75;36.40;;;;;;;9.71;100.00;101659.19;5041230;28;20060;-81
2021/10/26 07:21:12;;;;;;;60.58;35.60;;;;;;;9.74;100.00;101655.53;5042249;28;20028;-81
2021/10/26 07:23:43;;;;;;;58.72;34.63;;;;;;;9.74;100.00;101664.22;5042766;28;20212;-81
2021/10/26 07:26:28;;;;;;;62.72;33.47;;;;;;;9.74;100.00;101664.22;5052288;28;20037;-82
2021/10/26 07:28:56;;;;;;;57.33;33.17;;;;;;;9.74;100.00;101666.00;5034120;28;20033;-80
2021/10/26 07:31:24;;;;;;;59.38;32.17;;;;;;;9.64;100.00;101654.53;5060631;28;20125;-81
2021/10/26 07:33:57;;;;;;;57.95;33.35;;;;;;;9.70;100.00;101668.03;5049712;28;20049;-81
2021/10/26 07:36:27;;;;;;;58.95;34.15;;;;;;;9.70;100.00;101659.31;5013998;28;20033;-80
2021/10/26 07:38:59;;;;;;;57.80;32.40;;;;;;;9.76;100.00;101669.34;5010115;28;20116;-81
2021/10/26 07:41:25;;;;;;;53.42;31.58;;;;;;;9.76;100.00;101669.34;5041624;28;20114;-80
2021/10/26 07:44:09;;;;;;;58.47;32.20;;;;;;;9.88;100.00;101672.78;5039359;28;20029;-82
2021/10/26 07:46:59;;;;;;;50.63;32.70;;;;;;;9.92;100.00;101677.66;5058360;28;20025;-80
2021/10/26 07:49:25;;;;;;;50.00;30.48;;;;;;;9.94;100.00;101682.78;5046500;28;20051;-80
2021/10/26 07:51:51;;;;;;;55.40;30.73;;;;;;;9.94;100.00;101682.78;5045771;28;20045;-81
2021/10/26 07:54:18;;;;;;;57.40;29.80;;;;;;;9.97;100.00;101685.16;5061904;28;20120;-80
2021/10/26 07:56:44;;;;;;;49.42;28.85;;;;;;;9.99;100.00;101680.63;5020397;28;20149;-80
2021/10/26 07:59:11;;;;;;;56.28;29.25;;;;;;;10.02;100.00;101685.66;5014421;28;20131;-81
2021/10/26 08:01:38;;;;;;;46.30;27.67;;;;;;;10.06;100.00;101689.69;5031087;28;20028;-80
2021/10/26 08:04:26;;;;;;;48.70;26.77;;;;;;;10.11;100.00;101690.19;5026993;28;20097;-80
2021/10/26 08:07:07;;;;;;;42.22;27.45;;;;;;;10.16;100.00;101679.31;5042720;28;20116;-80
2021/10/26 08:09:33;;;;;;;43.08;26.20;;;;;;;10.19;100.00;101684.34;5055788;28;20033;-80
2021/10/26 08:11:59;;;;;;;40.15;25.60;;;;;;;10.26;100.00;101688.13;5042740;28;20045;-80
2021/10/26 08:14:25;;;;;;;41.92;26.77;;;;;;;10.28;100.00;101678.38;5015019;28;20036;-80
2021/10/26 08:16:53;;;;;;;40.97;26.17;;;;;;;10.36;100.00;101687.41;5026393;28;20101;-80
2021/10/26 08:19:19;;;;;;;41.55;26.05;;;;;;;10.38;100.00;101677.63;5059917;28;20452;-80
2021/10/26 08:21:46;;;;;;;41.80;25.15;;;;;;;10.40;100.00;101679.19;5033754;28;20036;-80
2021/10/26 08:24:12;;;;;;;38.35;23.85;;;;;;;10.45;100.00;101687.53;5040431;28;20032;-79
2021/10/26 08:26:40;;;;;;;43.55;25.38;;;;;;;10.58;100.00;101691.78;5041549;28;20039;-80
2021/10/26 08:29:20;;;;;;;38.08;23.85;;;;;;;10.56;100.00;101689.28;5014507;28;20100;-79
2021/10/26 08:36:39;;;;;;;38.15;24.77;;;;;;;10.72;100.00;101688.91;5018103;28;20037;-80
2021/10/26 08:39:07;;;;;;;40.35;25.20;;;;;;;10.80;100.00;101689.09;5036027;28;20045;-80
2021/10/26 08:41:35;;;;;;;40.40;24.33;;;;;;;10.83;100.00;101686.25;5018088;28;20029;-80
2021/10/26 08:44:01;;;;;;;39.85;24.38;;;;;;;10.88;100.00;101688.47;5008882;28;20032;-79
2021/10/26 08:46:26;;;;;;;34.08;22.42;;;;;;;10.95;100.00;101694.91;5027716;28;20037;-81
2021/10/26 08:48:53;;;;;;;38.28;22.60;;;;;;;10.99;100.00;101696.31;5006899;28;20037;-82
2021/10/26 08:51:40;;;;;;;34.83;22.52;;;;;;;11.06;100.00;101696.66;5044832;28;20502;-80
2021/10/26 08:54:08;;;;;;;40.10;24.85;;;;;;;11.12;100.00;101706.63;5035818;28;20055;-79
2021/10/26 08:56:52;;;;;;;38.15;24.30;;;;;;;11.19;100.00;101702.56;5028166;28;20439;-81
2021/10/26 08:59:30;;;;;;;41.08;24.58;;;;;;;11.26;100.00;101694.97;5031080;28;20052;-82
2021/10/26 09:01:59;;;;;;;36.55;23.33;;;;;;;11.34;100.00;101699.59;5039249;28;20065;-79
2021/10/26 09:04:35;;;;;;;34.17;21.90;;;;;;;11.49;100.00;101698.31;5040359;28;20047;-81
2021/10/26 09:07:06;;;;;;;32.10;22.40;;;;;;;11.71;100.00;101696.50;5026951;28;20055;-80
2021/10/26 09:09:36;;;;;;;32.90;20.77;;;;;;;11.92;100.00;101705.19;5022306;28;20047;-81
2021/10/26 09:18:12;;;;;;;32.65;20.00;;;;;;;12.25;100.00;101700.63;5059855;28;20033;-82
2021/10/26 09:20:58;;;;;;;32.15;18.90;;;;;;;12.41;100.00;101695.69;5025800;28;20076;-81
2021/10/26 09:23:56;;;;;;;29.65;18.48;;;;;;;12.51;100.00;101698.34;5035429;28;20087;-79
2021/10/26 09:26:44;;;;;;;25.10;16.95;;;;;;;12.51;100.00;101700.13;5037402;28;20072;-81
2021/10/26 09:29:12;;;;;;;25.88;15.88;;;;;;;12.48;100.00;101692.50;5020870;28;20519;-81
2021/10/26 09:31:39;;;;;;;24.15;15.57;;;;;;;12.43;100.00;101706.91;5025806;28;20495;-81
2021/10/26 09:34:16;;;;;;;25.40;15.95;;;;;;;12.57;100.00;101700.41;5052301;28;20451;-80
2021/10/26 09:36:44;;;;;;;23.30;15.43;;;;;;;12.70;100.00;101713.31;5019556;28;20124;-79
2021/10/26 09:39:19;;;;;;;24.48;14.50;;;;;;;12.71;100.00;101722.88;5052012;28;20037;-81
2021/10/26 09:41:51;;;;;;;20.63;13.70;;;;;;;12.74;100.00;101725.25;5036457;28;20041;-81
2021/10/26 09:44:19;;;;;;;24.52;13.45;;;;;;;12.66;100.00;101718.03;5018717;28;20039;-81
2021/10/26 09:46:59;;;;;;;20.70;12.68;;;;;;;12.57;100.00;101726.75;5005044;28;20028;-81
2021/10/26 09:49:38;;;;;;;21.40;11.85;;;;;;;12.44;100.00;101721.72;5007028;28;20048;-81
2021/10/26 09:52:13;;;;;;;16.05;10.63;;;;;;;12.29;100.00;101725.69;5032687;28;20563;-81
2021/10/26 09:54:41;;;;;;;22.77;12.02;;;;;;;12.16;100.00;101722.47;5033009;28;20087;-81
2021/10/26 09:57:13;;;;;;;30.02;12.60;;;;;;;12.13;100.00;101728.84;5027534;28;20370;-81
2021/10/26 09:59:50;;;;;;;20.90;12.35;;;;;;;12.06;100.00;101711.91;5018383;28;20041;-81
2021/10/26 10:02:18;;;;;;;21.25;12.27;;;;;;;12.10;100.00;101723.84;5032813;28;20039;-80
2021/10/26 10:04:43;;;;;;;22.58;13.15;;;;;;;12.16;100.00;101722.47;5001487;28;20076;-79
2021/10/26 10:07:10;;;;;;;20.60;11.48;;;;;;;12.16;100.00;101725.91;5008424;28;20061;-80
2021/10/26 10:09:36;;;;;;;19.42;12.00;;;;;;;12.16;100.00;101723.28;5031178;28;20036;-81
2021/10/26 10:12:04;;;;;;;24.17;12.60;;;;;;;12.16;100.00;101731.19;5019811;28;20048;-81
2021/10/26 10:14:41;;;;;;;21.42;12.43;;;;;;;12.11;100.00;101727.28;5010663;28;20637;-80
2021/10/26 10:17:08;;;;;;;25.77;13.27;;;;;;;11.99;100.00;101730.00;5032585;28;20028;-81
2021/10/26 10:19:35;;;;;;;25.55;15.25;;;;;;;12.01;100.00;101727.25;5023568;28;20048;-82
2021/10/26 10:22:05;;;;;;;26.15;15.55;;;;;;;11.95;100.00;101710.19;5015388;28;20151;-80
2021/10/26 10:24:37;;;;;;;28.80;16.13;;;;;;;12.07;100.00;101718.81;5018042;28;20041;-80
2021/10/26 10:27:03;;;;;;;22.90;15.80;;;;;;;11.98;100.00;101724.88;5037324;28;20495;-81
2021/10/26 10:29:29;;;;;;;23.58;16.55;;;;;;;11.96;100.00;101711.03;5015838;28;20069;-81
2021/10/26 10:31:55;;;;;;;26.27;16.20;;;;;;;12.29;100.00;101728.31;5047777;28;20075;-79
2021/10/26 10:34:22;;;;;;;27.25;17.05;;;;;;;12.64;100.00;101729.66;5023653;28;20412;-81
2021/10/26 10:36:52;;;;;;;22.88;15.00;;;;;;;12.82;100.00;101737.72;5005642;28;20079;-80
2021/10/26 10:39:24;;;;;;;21.90;14.63;;;;;;;12.82;99.66;101740.34;5010527;28;20033;-81
2021/10/26 10:42:12;;;;;;;26.83;15.82;;;;;;;12.80;98.74;101739.66;5024067;28;20491;-81
2021/10/26 10:44:39;;;;;;;22.13;14.85;;;;;;;12.87;99.07;101738.16;5013859;28;20029;-81
2021/10/26 10:47:10;;;;;;;26.90;15.18;;;;;;;13.05;99.62;101744.41;5029197;28;20507;-81
2021/10/26 10:49:35;;;;;;;21.17;14.15;;;;;;;13.37;96.42;101735.41;5014105;28;20036;-80
2021/10/26 10:52:10;;;;;;;18.05;13.05;;;;;;;13.77;94.77;101728.25;5001213;28;20868;-80
2021/10/26 10:54:39;;;;;;;18.40;14.48;;;;;;;13.90;91.52;101734.03;5032724;28;20041;-81
2021/10/26 10:57:33;;;;;;;21.85;14.82;;;;;;;14.13;90.06;101725.75;5048791;28;20048;-81
2021/10/26 11:00:00;;;;;;;20.73;15.50;;;;;;;14.35;90.88;101727.16;5028638;28;20090;-82
2021/10/26 11:02:44;;;;;;;23.25;16.40;;;;;;;14.50;88.10;101732.78;5050500;28;20041;-80
2021/10/26 11:05:36;;;;;;;22.45;16.08;;;;;;;14.59;86.74;101745.13;5025645;28;20380;-81
2021/10/26 11:08:15;;;;;;;18.73;15.02;;;;;;;14.63;86.70;101732.44;5014643;28;20037;-81
2021/10/26 11:10:49;;;;;;;21.70;15.15;;;;;;;14.66;86.25;101734.81;5007273;28;20033;-80
2021/10/26 11:13:20;;;;;;;24.60;14.52;;;;;;;14.58;85.14;101731.09;5017636;28;20037;-81
2021/10/26 11:15:49;;;;;;;17.17;13.52;;;;;;;14.49;85.46;101728.50;5044532;28;20036;-79
2021/10/26 11:18:33;;;;;;;19.73;12.88;;;;;;;14.65;87.98;101739.25;5032725;28;20138;-81
2021/10/26 11:21:00;;;;;;;20.02;11.80;;;;;;;14.71;84.64;101741.31;5032787;28;20053;-81
2021/10/26 11:23:33;;;;;;;18.70;11.32;;;;;;;14.65;84.71;101741.88;5034182;28;20025;-80
2021/10/26 11:26:00;;;;;;;;;;;;;;;14.48;84.81;101738.19;5021484;28;20041;-81
2021/10/26 11:28:28;;;;;;;16.90;10.63;;;;;;;14.37;85.59;101733.97;5010704;28;19919;-80
2021/10/26 11:30:56;;;;;;;13.40;10.02;;;;;;;14.22;86.63;101724.84;5023137;28;20314;-80
2021/10/26 11:33:22;;;;;;;17.45;10.77;;;;;;;14.10;89.40;101724.22;5019893;28;20040;-79